createdAt,value
2019-02-20T00:03:49.785Z,101253.42
2019-02-20T00:06:25.059Z,101253.42
2019-02-20T00:08:56.334Z,101257.27
2019-02-20T00:11:27.612Z,101257.27
2019-02-20T00:13:57.058Z,101264.11
2019-02-20T00:16:25.613Z,101267.17
2019-02-20T00:18:57.169Z,101262.34
2019-02-20T00:21:28.805Z,101260.10
2019-02-20T00:24:00.123Z,101262.62
2019-02-20T00:26:31.673Z,101262.62
2019-02-20T00:29:03.533Z,101262.75
2019-02-20T00:31:35.137Z,101269.15
2019-02-20T00:34:08.195Z,101265.62
2019-02-20T00:36:39.904Z,101265.62
2019-02-20T00:39:11.619Z,101268.95
2019-02-20T00:41:43.254Z,101269.49
2019-02-20T00:44:16.480Z,101266.88
2019-02-20T00:46:58.201Z,101274.12
2019-02-20T00:49:31.106Z,101274.12
2019-02-20T00:52:01.303Z,101275.55
2019-02-20T00:54:33.455Z,101266.53
2019-02-20T00:57:05.152Z,101273.47
2019-02-20T00:59:36.673Z,101273.47
2019-02-20T01:02:08.513Z,101280.47
2019-02-20T01:04:40.008Z,101284.28
2019-02-20T01:07:11.463Z,101291.16
2019-02-20T01:09:42.735Z,101289.83
2019-02-20T01:12:14.121Z,101289.83
2019-02-20T01:14:42.703Z,101290.17
2019-02-20T01:17:15.386Z,101291.50
2019-02-20T01:19:46.605Z,101291.50
2019-02-20T01:22:17.851Z,101297.11
2019-02-20T01:24:49.441Z,101275.33
2019-02-20T01:27:21.475Z,101281.53
2019-02-20T01:29:53.087Z,101279.36
2019-02-20T01:32:24.666Z,101279.36
2019-02-20T01:34:53.595Z,101271.77
2019-02-20T01:37:22.564Z,101268.67
2019-02-20T01:39:51.543Z,101268.67
2019-02-20T01:42:20.115Z,101266.05
2019-02-20T01:44:48.670Z,101263.06
2019-02-20T01:47:19.974Z,101254.45
2019-02-20T01:49:48.527Z,101263.91
2019-02-20T01:52:20.112Z,101268.61
2019-02-20T01:54:48.677Z,101262.08
2019-02-20T01:57:20.141Z,101262.08
2019-02-20T01:59:53.547Z,101253.09
2019-02-20T02:02:25.052Z,101257.96
2019-02-20T02:04:56.184Z,101257.96
2019-02-20T02:07:27.629Z,101264.86
2019-02-20T02:09:56.182Z,101267.95
2019-02-20T02:12:24.772Z,101267.95
2019-02-20T02:14:55.010Z,101265.09
2019-02-20T02:17:26.577Z,101264.27
2019-02-20T02:19:55.139Z,101255.63
2019-02-20T02:22:26.424Z,101259.22
2019-02-20T02:24:54.981Z,101263.69
2019-02-20T02:27:26.548Z,101246.45
2019-02-20T02:29:55.087Z,101255.47
2019-02-20T02:32:26.328Z,101245.52
2019-02-20T02:34:56.393Z,101252.00
2019-02-20T02:37:27.682Z,101246.95
2019-02-20T02:39:59.181Z,101258.46
2019-02-20T02:42:30.430Z,101256.95
2019-02-20T02:44:59.369Z,101256.95
2019-02-20T02:47:30.632Z,101264.33
2019-02-20T02:49:59.180Z,101264.80
2019-02-20T02:52:28.088Z,101263.06
2019-02-20T02:54:56.639Z,101267.80
2019-02-20T02:57:28.079Z,101264.89
2019-02-20T02:59:56.633Z,101266.88
2019-02-20T03:02:28.210Z,101266.88
2019-02-20T03:04:56.742Z,101283.91
2019-02-20T03:07:29.812Z,101283.91
2019-02-20T03:10:01.137Z,101284.02
2019-02-20T03:12:32.433Z,101288.58
2019-02-20T03:15:00.996Z,101285.75
2019-02-20T03:17:32.447Z,101286.61
2019-02-20T03:20:00.993Z,101286.66
2019-02-20T03:22:32.695Z,101286.66
2019-02-20T03:25:01.268Z,101287.13
2019-02-20T03:27:32.529Z,101285.42
2019-02-20T03:30:01.091Z,101281.37
2019-02-20T03:32:32.360Z,101281.37
2019-02-20T03:35:00.909Z,101286.94
2019-02-20T03:37:29.501Z,101296.83
2019-02-20T03:40:01.164Z,101293.83
2019-02-20T03:42:29.766Z,101295.61
2019-02-20T03:44:58.323Z,101307.17
2019-02-20T03:47:31.800Z,101307.17
2019-02-20T03:50:00.427Z,101307.22
2019-02-20T03:52:31.705Z,101305.19
2019-02-20T03:55:03.278Z,101301.49
2019-02-20T03:57:34.524Z,101301.49
2019-02-20T04:00:03.520Z,101301.97
2019-02-20T04:02:35.175Z,101298.54
2019-02-20T04:05:07.388Z,101298.54
2019-02-20T04:07:38.930Z,101310.14
2019-02-20T04:10:10.530Z,101309.29
2019-02-20T04:12:41.776Z,101309.29
2019-02-20T04:15:10.773Z,101296.87
2019-02-20T04:17:39.510Z,101306.24
2019-02-20T04:20:10.799Z,101306.24
2019-02-20T04:22:42.074Z,101293.88
2019-02-20T04:25:10.631Z,101298.70
2019-02-20T04:27:39.206Z,101307.70
2019-02-20T04:30:11.129Z,101309.92
2019-02-20T04:32:42.389Z,101309.92
2019-02-20T04:35:10.931Z,101318.55
2019-02-20T04:37:42.294Z,101312.52
2019-02-20T04:40:13.838Z,101313.38
2019-02-20T04:42:45.331Z,101311.22
2019-02-20T04:45:17.102Z,101311.22
2019-02-20T04:47:48.749Z,101315.05
2019-02-20T04:50:19.962Z,101315.05
2019-02-20T04:52:53.153Z,101322.23
2019-02-20T04:55:24.401Z,101320.53
2019-02-20T04:58:32.049Z,101326.52
2019-02-20T05:01:03.527Z,101326.52
2019-02-20T05:03:34.701Z,101329.39
2019-02-20T05:06:03.262Z,101323.30
2019-02-20T05:08:31.833Z,101323.30
2019-02-20T05:11:02.953Z,101325.00
2019-02-20T05:13:34.247Z,101315.09
2019-02-20T05:16:03.593Z,101315.09
2019-02-20T05:18:34.850Z,101325.44
2019-02-20T05:21:06.144Z,101329.70
2019-02-20T05:23:37.637Z,101329.70
2019-02-20T05:26:06.195Z,101324.48
2019-02-20T05:28:37.724Z,101319.77
2019-02-20T05:31:09.048Z,101319.77
2019-02-20T05:33:40.306Z,101337.83
2019-02-20T05:36:11.855Z,101337.83
2019-02-20T05:38:43.510Z,101338.91
2019-02-20T05:41:12.085Z,101341.17
2019-02-20T05:43:43.645Z,101341.17
2019-02-20T05:46:15.253Z,101346.66
2019-02-20T05:48:46.528Z,101347.07
2019-02-20T05:51:15.092Z,101360.74
2019-02-20T05:53:46.872Z,101360.74
2019-02-20T05:56:15.441Z,101355.19
2019-02-20T05:58:46.979Z,101365.40
2019-02-20T06:01:15.538Z,101364.95
2019-02-20T06:03:46.800Z,101365.37
2019-02-20T06:06:18.374Z,101365.37
2019-02-20T06:08:49.659Z,101361.91
2019-02-20T06:11:18.217Z,101381.28
2019-02-20T06:13:46.806Z,101384.20
2019-02-20T06:16:15.825Z,101378.67
2019-02-20T06:18:47.512Z,101380.30
2019-02-20T06:21:16.488Z,101384.98
2019-02-20T06:23:47.643Z,101396.17
2019-02-20T06:26:19.760Z,101396.17
2019-02-20T06:28:51.419Z,101385.27
2019-02-20T06:31:19.937Z,101393.82
2019-02-20T06:33:53.427Z,101393.82
2019-02-20T06:36:25.337Z,101390.84
2019-02-20T06:38:56.970Z,101392.88
2019-02-20T06:41:28.339Z,101394.62
2019-02-20T06:43:56.895Z,101403.64
2019-02-20T06:46:28.244Z,101407.90
2019-02-20T06:48:59.921Z,101413.48
2019-02-20T06:51:28.510Z,101412.24
2019-02-20T06:53:57.089Z,101411.25
2019-02-20T06:56:25.676Z,101417.25
2019-02-20T06:58:57.019Z,101416.31
2019-02-20T07:01:25.593Z,101420.05
2019-02-20T07:03:56.098Z,101423.90
2019-02-20T07:06:30.947Z,101426.65
2019-02-20T07:09:24.935Z,101430.47
2019-02-20T07:12:08.832Z,101429.80
2019-02-20T07:14:56.977Z,101435.38
2019-02-20T07:17:46.686Z,101437.87
2019-02-20T07:20:37.808Z,101440.59
2019-02-20T07:23:30.415Z,101438.99
2019-02-20T07:28:57.566Z,101437.22
2019-02-20T07:31:29.130Z,101431.66
2019-02-20T07:34:00.546Z,101441.65
2019-02-20T07:36:29.123Z,101451.15
2019-02-20T07:38:57.695Z,101450.60
2019-02-20T07:41:29.308Z,101455.81
2019-02-20T07:44:00.610Z,101464.73
2019-02-20T07:46:32.329Z,101466.51
2019-02-20T07:49:03.556Z,101469.50
2019-02-20T07:51:35.060Z,101459.08
2019-02-20T07:54:04.033Z,101468.92
2019-02-20T07:56:35.320Z,101488.30
2019-02-20T07:59:06.545Z,101494.95
2019-02-20T08:01:38.285Z,101503.61
2019-02-20T08:04:06.831Z,101501.31
2019-02-20T08:06:35.415Z,101502.95
2019-02-20T08:09:06.780Z,101502.95
2019-02-20T08:11:38.100Z,101508.81
2019-02-20T08:14:06.660Z,101496.96
2019-02-20T08:16:38.190Z,101506.30
2019-02-20T08:19:09.443Z,101510.34
2019-02-20T08:21:41.268Z,101513.70
2019-02-20T08:24:09.838Z,101509.11
2019-02-20T08:26:41.354Z,101515.07
2019-02-20T08:29:13.051Z,101518.55
2019-02-20T08:31:41.608Z,101528.87
2019-02-20T08:34:10.188Z,101532.17
2019-02-20T08:36:38.749Z,101534.64
2019-02-20T08:39:10.374Z,101536.80
2019-02-20T08:41:41.734Z,101528.24
2019-02-20T08:44:12.983Z,101540.75
2019-02-20T08:46:44.520Z,101552.50
2019-02-20T08:49:13.100Z,101554.31
2019-02-20T08:51:41.666Z,101554.07
2019-02-20T08:54:10.308Z,101553.79
2019-02-20T08:56:38.873Z,101562.31
2019-02-20T08:59:10.286Z,101557.79
2019-02-20T09:01:41.861Z,101562.73
2019-02-20T09:04:10.436Z,101563.30
2019-02-20T09:06:38.990Z,101564.12
2019-02-20T09:09:10.814Z,101570.92
2019-02-20T09:11:39.352Z,101580.01
2019-02-20T09:14:10.652Z,101578.70
2019-02-20T09:16:39.658Z,101589.01
2019-02-20T09:19:11.410Z,101580.61
2019-02-20T09:21:42.898Z,101590.37
2019-02-20T09:24:11.830Z,101587.81
2019-02-20T09:26:40.376Z,101586.33
2019-02-20T09:29:08.965Z,101590.77
2019-02-20T09:31:40.218Z,101586.27
2019-02-20T09:34:11.504Z,101584.02
2019-02-20T09:36:42.750Z,101589.20
2019-02-20T09:39:34.584Z,101593.69
2019-02-20T09:42:03.688Z,101592.47
2019-02-20T09:44:35.040Z,101595.78
2019-02-20T09:47:03.757Z,101601.56
2019-02-20T09:49:35.011Z,101595.87
2019-02-20T09:52:03.963Z,101603.11
2019-02-20T09:54:35.571Z,101606.77
2019-02-20T09:57:35.701Z,101610.14
2019-02-20T10:00:00.646Z,101609.66
2019-02-20T10:02:29.205Z,101614.09
2019-02-20T10:05:00.711Z,101615.29
2019-02-20T10:07:29.654Z,101613.80
2019-02-20T10:10:01.113Z,101622.49
2019-02-20T10:12:32.594Z,101622.56
2019-02-20T10:15:01.169Z,101629.82
2019-02-20T10:17:32.844Z,101632.82
2019-02-20T10:20:04.169Z,101628.68
2019-02-20T10:22:32.722Z,101634.02
2019-02-20T10:25:05.885Z,101624.23
2019-02-20T10:27:37.187Z,101631.88
2019-02-20T10:30:08.817Z,101634.28
2019-02-20T10:32:37.372Z,101641.82
2019-02-20T10:35:09.920Z,101641.07
2019-02-20T10:37:38.480Z,101643.92
2019-02-20T10:40:11.037Z,101651.33
2019-02-20T10:42:39.615Z,101645.62
2019-02-20T10:45:12.430Z,101650.24
2019-02-20T10:47:44.009Z,101654.83
2019-02-20T10:50:15.477Z,101653.28
2019-02-20T10:52:46.815Z,101645.52
2019-02-20T10:55:15.437Z,101637.07
2019-02-20T10:57:46.950Z,101626.42
2019-02-20T11:00:24.584Z,101630.17
2019-02-20T11:02:54.814Z,101624.92
2019-02-20T11:05:26.296Z,101630.86
2019-02-20T11:07:54.914Z,101634.52
2019-02-20T11:13:39.008Z,101630.33
2019-02-20T11:16:07.647Z,101629.38
2019-02-20T11:18:39.015Z,101627.55
2019-02-20T11:21:10.338Z,101631.11
2019-02-20T11:23:38.951Z,101628.02
2019-02-20T11:26:17.909Z,101632.48
2019-02-20T11:28:43.474Z,101630.39
2019-02-20T11:31:15.019Z,101631.98
2019-02-20T11:33:46.575Z,101618.05
2019-02-20T11:36:18.253Z,101618.23
2019-02-20T11:38:46.831Z,101618.53
2019-02-20T11:41:18.082Z,101620.44
2019-02-20T11:43:46.661Z,101617.64
2019-02-20T11:46:18.511Z,101613.72
2019-02-20T11:48:47.090Z,101610.93
2019-02-20T11:51:18.619Z,101609.41
2019-02-20T11:53:47.273Z,101612.25
2019-02-20T11:56:26.429Z,101608.62
2019-02-20T11:58:53.236Z,101605.28
2019-02-20T12:01:24.497Z,101610.03
2019-02-20T12:03:53.087Z,101603.70
2019-02-20T12:06:30.922Z,101596.52
2019-02-20T12:08:59.614Z,101600.14
2019-02-20T12:11:33.336Z,101592.63
2019-02-20T12:14:01.985Z,101595.75
2019-02-20T12:16:33.658Z,101598.97
2019-02-20T12:19:05.150Z,101594.97
2019-02-20T12:21:36.667Z,101604.16
2019-02-20T12:24:05.341Z,101604.67
2019-02-20T12:26:53.534Z,101608.40
2019-02-20T12:29:22.682Z,101611.52
2019-02-20T12:31:55.587Z,101609.87
2019-02-20T12:34:28.216Z,101610.30
2019-02-20T12:36:56.902Z,101601.77
2019-02-20T12:39:25.488Z,101608.94
2019-02-20T12:41:57.233Z,101603.25
2019-02-20T12:44:28.809Z,101604.03
2019-02-20T12:47:00.255Z,101607.48
2019-02-20T12:49:28.838Z,101608.28
2019-02-20T12:51:57.400Z,101606.78
2019-02-20T12:54:26.550Z,101608.65
2019-02-20T12:56:57.889Z,101604.90
2019-02-20T12:59:29.188Z,101611.66
2019-02-20T13:02:00.736Z,101610.58
2019-02-20T13:04:32.049Z,101608.98
2019-02-20T13:07:00.636Z,101613.23
2019-02-20T13:09:31.898Z,101612.94
2019-02-20T13:12:00.488Z,101610.38
2019-02-20T13:14:32.192Z,101605.14
2019-02-20T13:17:03.871Z,101605.83
2019-02-20T13:19:35.653Z,101607.72
2019-02-20T13:22:07.274Z,101609.69
2019-02-20T13:24:35.831Z,101603.64
2019-02-20T13:27:10.260Z,101603.05
2019-02-20T13:29:38.887Z,101610.29
2019-02-20T13:32:10.405Z,101615.84
2019-02-20T13:34:38.968Z,101617.69
2019-02-20T13:37:10.355Z,101622.27
2019-02-20T13:39:41.943Z,101616.94
2019-02-20T13:42:13.418Z,101616.64
2019-02-20T13:44:45.294Z,101613.14
2019-02-20T13:47:16.591Z,101625.91
2019-02-20T13:49:45.224Z,101623.44
2019-02-20T13:52:14.270Z,101623.31
2019-02-20T13:54:45.829Z,101625.02
2019-02-20T13:57:17.097Z,101621.80
2019-02-20T13:59:48.604Z,101616.13
2019-02-20T14:02:20.466Z,101612.39
2019-02-20T14:04:55.527Z,101618.58
2019-02-20T14:07:27.029Z,101621.89
2019-02-20T14:09:55.624Z,101618.41
2019-02-20T14:12:26.943Z,101612.42
2019-02-20T14:14:56.902Z,101620.20
2019-02-20T14:17:28.333Z,101620.91
2019-02-20T14:19:59.655Z,101620.70
2019-02-20T14:22:31.187Z,101621.55
2019-02-20T14:25:00.022Z,101626.52
2019-02-20T14:27:31.750Z,101622.45
2019-02-20T14:30:03.028Z,101614.47
2019-02-20T14:32:34.584Z,101615.44
2019-02-20T14:35:09.002Z,101617.47
2019-02-20T14:37:39.336Z,101618.36
2019-02-20T14:40:09.430Z,101610.81
2019-02-20T14:42:40.738Z,101616.67
2019-02-20T14:45:15.470Z,101617.77
2019-02-20T14:47:46.991Z,101622.80
2019-02-20T14:50:15.548Z,101624.69
2019-02-20T14:52:44.135Z,101624.29
2019-02-20T14:55:15.617Z,101630.59
2019-02-20T14:57:47.044Z,101624.23
2019-02-20T15:00:16.453Z,101630.81
2019-02-20T15:02:48.281Z,101641.02
2019-02-20T15:05:20.219Z,101635.81
2019-02-20T15:07:54.013Z,101637.13
2019-02-20T15:10:22.646Z,101639.27
2019-02-20T15:12:52.599Z,101641.87
2019-02-20T15:15:23.996Z,101642.50
2019-02-20T15:17:55.776Z,101642.16
2019-02-20T15:20:30.314Z,101644.36
2019-02-20T15:23:01.680Z,101644.83
2019-02-20T15:25:32.894Z,101646.63
2019-02-20T15:28:04.733Z,101649.91
2019-02-20T15:30:33.416Z,101658.91
2019-02-20T15:33:05.393Z,101651.94
2019-02-20T15:35:36.917Z,101649.45
2019-02-20T15:38:08.522Z,101664.56
2019-02-20T15:40:40.063Z,101660.33
2019-02-20T15:43:11.322Z,101655.17
2019-02-20T15:45:40.137Z,101661.67
2019-02-20T15:48:11.521Z,101659.75
2019-02-20T15:50:42.778Z,101668.05
2019-02-20T15:53:11.363Z,101670.38
2019-02-20T15:55:42.894Z,101670.27
2019-02-20T15:58:14.363Z,101668.06
2019-02-20T16:00:46.827Z,101674.78
2019-02-20T16:03:18.188Z,101676.81
2019-02-20T16:05:49.439Z,101680.03
2019-02-20T16:08:21.011Z,101675.98
2019-02-20T16:10:49.621Z,101682.82
2019-02-20T16:13:22.160Z,101676.92
2019-02-20T16:15:55.419Z,101680.48
2019-02-20T16:18:26.845Z,101676.69
2019-02-20T16:20:55.409Z,101683.34
2019-02-20T16:23:26.857Z,101682.64
2019-02-20T16:25:55.443Z,101687.59
2019-02-20T16:28:33.556Z,101688.84
2019-02-20T16:31:00.333Z,101689.55
2019-02-20T16:33:31.539Z,101694.46
2019-02-20T16:36:03.061Z,101700.64
2019-02-20T16:38:31.612Z,101693.45
2019-02-20T16:41:04.716Z,101694.36
2019-02-20T16:43:36.320Z,101707.16
2019-02-20T16:46:04.892Z,101703.10
2019-02-20T16:48:36.131Z,101707.65
2019-02-20T16:51:04.739Z,101708.55
2019-02-20T16:53:34.280Z,101717.20
2019-02-20T16:56:02.854Z,101719.26
2019-02-20T16:58:34.544Z,101725.21
2019-02-20T17:01:07.103Z,101726.66
2019-02-20T17:03:38.643Z,101727.09
2019-02-20T17:06:10.207Z,101725.23
2019-02-20T17:08:39.831Z,101727.08
2019-02-20T17:11:11.580Z,101730.67
2019-02-20T17:13:40.155Z,101738.52
2019-02-20T17:16:11.475Z,101743.84
2019-02-20T17:18:40.040Z,101743.04
2019-02-20T17:21:11.575Z,101750.03
2019-02-20T17:23:40.199Z,101758.27
2019-02-20T17:26:08.853Z,101753.66
2019-02-20T17:28:40.114Z,101753.25
2019-02-20T17:31:08.757Z,101753.25
2019-02-20T17:33:40.431Z,101753.38
2019-02-20T17:36:12.320Z,101761.04
2019-02-20T17:38:41.098Z,101758.63
2019-02-20T17:41:10.322Z,101764.48
2019-02-20T17:43:42.168Z,101769.67
2019-02-20T17:46:14.031Z,101761.88
2019-02-20T17:48:42.588Z,101764.97
2019-02-20T17:51:11.459Z,101767.08
2019-02-20T17:53:41.424Z,101767.97
2019-02-20T17:56:12.721Z,101763.56
2019-02-20T17:58:44.024Z,101770.45
2019-02-20T18:01:16.543Z,101776.17
2019-02-20T18:03:45.109Z,101772.39
2019-02-20T18:06:13.867Z,101772.81
2019-02-20T18:08:45.071Z,101774.55
2019-02-20T18:11:16.765Z,101774.27
2019-02-20T18:13:45.692Z,101770.03
2019-02-20T18:16:14.305Z,101772.37
2019-02-20T18:18:42.893Z,101778.45
2019-02-20T18:21:15.221Z,101771.74
2019-02-20T18:23:47.165Z,101779.23
2019-02-20T18:26:18.742Z,101779.71
2019-02-20T18:28:50.239Z,101775.89
2019-02-20T18:31:24.052Z,101781.63
2019-02-20T18:33:56.072Z,101779.45
2019-02-20T18:36:24.812Z,101787.74
2019-02-20T18:38:55.324Z,101791.53
2019-02-20T18:41:23.920Z,101792.86
2019-02-20T18:43:55.487Z,101790.38
2019-02-20T18:46:26.839Z,101791.67
2019-02-20T18:48:58.260Z,101793.00
2019-02-20T18:51:29.593Z,101800.75
2019-02-20T18:53:58.158Z,101799.48
2019-02-20T18:56:26.756Z,101800.41
2019-02-20T18:58:58.101Z,101797.30
2019-02-20T19:01:30.100Z,101801.67
2019-02-20T19:04:01.717Z,101799.62
2019-02-20T19:06:30.400Z,101807.40
2019-02-20T19:09:02.491Z,101808.73
2019-02-20T19:11:51.227Z,101807.09
2019-02-20T19:14:31.698Z,101809.74
2019-02-20T19:17:27.210Z,101807.97
2019-02-20T19:20:20.144Z,101813.22
2019-02-20T19:23:17.348Z,101812.78
2019-02-20T19:26:07.209Z,101823.09
2019-02-20T19:28:56.873Z,101816.19
2019-02-20T19:31:40.229Z,101817.96
2019-02-20T19:34:17.615Z,101814.55
2019-02-20T19:37:22.669Z,101812.08
2019-02-20T19:40:03.445Z,101815.46
2019-02-20T19:42:59.174Z,101815.05
2019-02-20T19:45:42.640Z,101812.52
2019-02-20T19:48:33.520Z,101811.48
2019-02-20T19:51:26.623Z,101818.88
2019-02-20T19:54:13.472Z,101812.87
2019-02-20T19:57:11.043Z,101815.38
2019-02-20T20:00:01.334Z,101808.57
2019-02-20T20:03:02.703Z,101821.97
2019-02-20T20:05:52.984Z,101813.93
2019-02-20T20:08:26.227Z,101817.44
2019-02-20T20:11:17.471Z,101816.98
2019-02-20T20:14:10.185Z,101812.69
2019-02-20T20:16:53.663Z,101811.06
2019-02-20T20:19:45.675Z,101820.08
2019-02-20T20:22:43.312Z,101821.41
2019-02-20T20:25:24.649Z,101815.86
2019-02-20T20:28:01.992Z,101821.88
2019-02-20T20:30:56.346Z,101819.80
2019-02-20T20:33:37.046Z,101822.28
2019-02-20T20:36:25.980Z,101822.34
2019-02-20T20:39:10.101Z,101821.48
2019-02-20T20:42:13.708Z,101826.25
2019-02-20T20:45:14.329Z,101828.95
2019-02-20T20:48:19.384Z,101826.33
2019-02-20T20:51:10.107Z,101825.91
2019-02-20T20:53:56.539Z,101829.41
2019-02-20T20:56:36.865Z,101823.73
2019-02-20T20:59:17.966Z,101827.66
2019-02-20T21:02:11.570Z,101824.16
2019-02-20T21:04:54.201Z,101832.06
2019-02-20T21:07:41.099Z,101824.59
2019-02-20T21:10:24.527Z,101830.30
2019-02-20T21:13:14.206Z,101833.41
2019-02-20T21:16:00.959Z,101827.34
2019-02-20T21:19:05.919Z,101824.36
2019-02-20T21:21:58.730Z,101828.31
2019-02-20T21:24:42.037Z,101820.91
2019-02-20T21:27:22.716Z,101827.88
2019-02-20T21:30:13.436Z,101820.91
2019-02-20T21:32:50.263Z,101833.45
2019-02-20T21:35:27.492Z,101832.20
2019-02-20T21:38:30.933Z,101826.67
2019-02-20T21:41:08.136Z,101826.23
2019-02-20T21:43:48.763Z,101826.14
2019-02-20T21:46:53.751Z,101824.47
2019-02-20T21:49:37.814Z,101833.63
2019-02-20T21:52:33.085Z,101831.89
2019-02-20T21:55:29.112Z,101826.28
2019-02-20T21:58:27.320Z,101827.48
2019-02-20T22:01:04.960Z,101830.52
2019-02-20T22:03:56.527Z,101828.36
2019-02-20T22:06:53.029Z,101832.70
2019-02-20T22:09:30.157Z,101825.87
2019-02-20T22:12:36.700Z,101828.95
2019-02-20T22:15:17.271Z,101834.05
2019-02-20T22:17:54.542Z,101828.01
2019-02-20T22:20:31.987Z,101828.55
2019-02-20T22:23:33.873Z,101830.27
2019-02-20T22:26:11.164Z,101832.06
2019-02-20T22:28:57.637Z,101835.15
2019-02-20T22:31:38.151Z,101833.03
2019-02-20T22:34:29.541Z,101831.78
2019-02-20T22:37:04.204Z,101830.09
2019-02-20T22:39:53.945Z,101834.46
2019-02-20T22:42:28.708Z,101837.09
2019-02-20T22:45:12.475Z,101839.39
2019-02-20T22:48:06.478Z,101839.39
2019-02-20T22:50:56.464Z,101841.62
2019-02-20T22:53:48.224Z,101841.62
2019-02-20T22:56:53.301Z,101833.03
2019-02-20T23:00:02.791Z,101848.96
2019-02-20T23:02:50.631Z,101849.91
2019-02-20T23:05:28.601Z,101854.59
2019-02-20T23:08:02.940Z,101849.91
2019-02-20T23:10:39.732Z,101843.42
2019-02-20T23:13:41.238Z,101845.17
2019-02-20T23:16:12.594Z,101851.63
2019-02-20T23:18:44.274Z,101853.35
2019-02-20T23:21:15.861Z,101856.80
2019-02-20T23:23:47.165Z,101856.80
2019-02-20T23:26:18.409Z,101851.66
2019-02-20T23:28:49.890Z,101845.66
2019-02-20T23:31:21.431Z,101845.66
2019-02-20T23:33:53.188Z,101862.44
2019-02-20T23:36:24.544Z,101860.73
2019-02-20T23:38:56.249Z,101860.73
2019-02-20T23:41:27.769Z,101865.05
2019-02-20T23:43:59.397Z,101865.05
2019-02-20T23:46:31.060Z,101863.78
2019-02-20T23:49:02.560Z,101859.92
2019-02-20T23:51:34.063Z,101863.36
2019-02-20T23:54:03.261Z,101867.69
2019-02-20T23:56:34.667Z,101874.13
2019-02-20T23:59:06.276Z,101874.13
